SCCC

Chile Chico Airport

Airport
ICAO code
SCCC
IATA Code
CCH
Summary
ICAO Region
CARSAM
ICAO Territory
Location

Chile Chico, Aisen del General Carlos Ibanez del Campo

Serving
Chile Chico
Elevation
1070 ft
Coordinates
46° 35' 0" S , 71° 41' 15" W
KCC
Csb
Metar
Observation
SCCC 081600Z 11003KT 9999 SCT040 BKN200 04/M01 Q1025
Station
Chile Chico
Date/Time
2022-08-08 16:00:00
Wind direction
110°
Wind speed
03 kts
Lowest cloud amount
scattered clouds
Temperature
4°C
Dew point
-1°C
Humidity
69%
QNH
1025 hPa
Weather condition
n/a

Airport 5km south south east of Chile Chico, Chile.

Climatology

Temperate mediterranean climate (Köppen climate classification Csb)

Runways

Designator Length Width Surface Rops
12/30 1200 23 ASP No/No

Airport map

Aerial View

SKYbrary Partners:

Safety knowledge contributed by: